Albert J Ellis Airport Jacksonville US
ICAO: KOAJ
IATA: OAJ
Category: Medium
Scheduled Services: No

Elevation: 94 ft
TransAlt. 18000 ft.

Airport Communications:
WILMINGTON APP/DEP:121.4
AWOS 3:124.475
CTAF/UNICOM:123

KOAJ Zoom In..

If you have problems with the map follow the link
https://www.worldairports.se/pages/airport.php?
ICAO=KOAJ

Runways:

(A) RW 05 length 7100 ft width 150 ft
ILS 108.70 / hdg 52

(B) RW 23 length 7100 ft width 150 ft
---- / hdg 232

Location; KOAJ
Day. 22 / Time. 13.56 Zulu
* Altimeter: 30.38
* Temperature: 01° c. 33.8°f.
* Wind from: 010° Speed 10 kn.
Dewpoint: -05° c.
Visibility: 10 Statute Miles.
Clouds: Clear (automated report).

KOAJ 221356Z 01010KT 10SM CLR 01/M05 A3038 RMK AO2 SLP290 T00061050


Wind From 010°
Speed 10 kn.

 
 
jpsmedia worldairports.se 2020   terms of use